sensor_id;sensor_type;location;lat;lon;timestamp;P1;durP1;ratioP1;P2;durP2;ratioP2
67140;SDS011;54058;52.010;5.546;2022-11-15T00:00:06;39.15;;;15.70;;
67140;SDS011;54058;52.010;5.546;2022-11-15T00:02:32;32.30;;;13.20;;
67140;SDS011;54058;52.010;5.546;2022-11-15T00:04:58;30.83;;;12.93;;
67140;SDS011;54058;52.010;5.546;2022-11-15T00:07:24;37.38;;;15.10;;
67140;SDS011;54058;52.010;5.546;2022-11-15T00:09:49;31.60;;;13.05;;
67140;SDS011;54058;52.010;5.546;2022-11-15T00:12:15;29.73;;;12.88;;
67140;SDS011;54058;52.010;5.546;2022-11-15T00:14:40;33.80;;;14.10;;
67140;SDS011;54058;52.010;5.546;2022-11-15T00:17:06;36.00;;;14.80;;
67140;SDS011;54058;52.010;5.546;2022-11-15T00:19:31;44.40;;;16.30;;
67140;SDS011;54058;52.010;5.546;2022-11-15T00:21:58;35.78;;;14.05;;
67140;SDS011;54058;52.010;5.546;2022-11-15T00:24:23;33.70;;;14.15;;
67140;SDS011;54058;52.010;5.546;2022-11-15T00:26:49;32.17;;;14.32;;
67140;SDS011;54058;52.010;5.546;2022-11-15T00:29:14;41.40;;;15.90;;
67140;SDS011;54058;52.010;5.546;2022-11-15T00:31:40;32.20;;;13.32;;
67140;SDS011;54058;52.010;5.546;2022-11-15T00:34:06;38.13;;;14.75;;
67140;SDS011;54058;52.010;5.546;2022-11-15T00:36:34;37.90;;;14.80;;
67140;SDS011;54058;52.010;5.546;2022-11-15T00:39:00;34.22;;;13.90;;
67140;SDS011;54058;52.010;5.546;2022-11-15T00:41:28;32.47;;;12.73;;
67140;SDS011;54058;52.010;5.546;2022-11-15T00:43:53;34.88;;;14.20;;
67140;SDS011;54058;52.010;5.546;2022-11-15T00:46:19;33.75;;;13.45;;
67140;SDS011;54058;52.010;5.546;2022-11-15T00:48:44;29.55;;;12.73;;
67140;SDS011;54058;52.010;5.546;2022-11-15T00:51:10;31.55;;;12.80;;
67140;SDS011;54058;52.010;5.546;2022-11-15T00:53:35;30.98;;;13.60;;
67140;SDS011;54058;52.010;5.546;2022-11-15T00:56:01;32.20;;;12.63;;
67140;SDS011;54058;52.010;5.546;2022-11-15T00:58:27;33.38;;;15.70;;
67140;SDS011;54058;52.010;5.546;2022-11-15T01:00:52;29.65;;;12.80;;
67140;SDS011;54058;52.010;5.546;2022-11-15T01:03:18;29.20;;;13.73;;
67140;SDS011;54058;52.010;5.546;2022-11-15T01:05:44;27.60;;;11.68;;
67140;SDS011;54058;52.010;5.546;2022-11-15T01:08:12;31.15;;;12.15;;
67140;SDS011;54058;52.010;5.546;2022-11-15T01:10:38;27.23;;;12.80;;
67140;SDS011;54058;52.010;5.546;2022-11-15T01:13:04;31.30;;;13.55;;
67140;SDS011;54058;52.010;5.546;2022-11-15T01:15:30;33.83;;;14.65;;
67140;SDS011;54058;52.010;5.546;2022-11-15T01:17:55;25.60;;;12.52;;
67140;SDS011;54058;52.010;5.546;2022-11-15T01:20:21;30.05;;;12.35;;
67140;SDS011;54058;52.010;5.546;2022-11-15T01:22:47;25.30;;;12.40;;
67140;SDS011;54058;52.010;5.546;2022-11-15T01:25:12;32.20;;;12.75;;
67140;SDS011;54058;52.010;5.546;2022-11-15T01:27:38;31.73;;;12.52;;
67140;SDS011;54058;52.010;5.546;2022-11-15T01:30:03;30.02;;;12.20;;
67140;SDS011;54058;52.010;5.546;2022-11-15T01:32:30;28.38;;;12.02;;
67140;SDS011;54058;52.010;5.546;2022-11-15T01:34:55;27.70;;;12.60;;
67140;SDS011;54058;52.010;5.546;2022-11-15T01:37:21;28.30;;;13.02;;
67140;SDS011;54058;52.010;5.546;2022-11-15T01:39:46;25.48;;;12.85;;
67140;SDS011;54058;52.010;5.546;2022-11-15T01:42:13;24.55;;;11.02;;
67140;SDS011;54058;52.010;5.546;2022-11-15T01:44:40;25.00;;;12.30;;
67140;SDS011;54058;52.010;5.546;2022-11-15T01:47:21;28.45;;;12.65;;
67140;SDS011;54058;52.010;5.546;2022-11-15T01:49:58;20.63;;;11.52;;
67140;SDS011;54058;52.010;5.546;2022-11-15T01:52:39;24.02;;;11.82;;
67140;SDS011;54058;52.010;5.546;2022-11-15T01:55:23;28.63;;;12.20;;
67140;SDS011;54058;52.010;5.546;2022-11-15T01:57:53;26.85;;;12.15;;
67140;SDS011;54058;52.010;5.546;2022-11-15T02:00:22;25.17;;;13.07;;
67140;SDS011;54058;52.010;5.546;2022-11-15T02:02:47;27.33;;;12.93;;
67140;SDS011;54058;52.010;5.546;2022-11-15T02:05:13;28.40;;;12.95;;
67140;SDS011;54058;52.010;5.546;2022-11-15T02:07:38;22.48;;;11.43;;
67140;SDS011;54058;52.010;5.546;2022-11-15T02:10:12;24.80;;;11.82;;
67140;SDS011;54058;52.010;5.546;2022-11-15T02:12:48;31.17;;;13.07;;
67140;SDS011;54058;52.010;5.546;2022-11-15T02:15:14;21.90;;;12.17;;
67140;SDS011;54058;52.010;5.546;2022-11-15T02:17:58;29.50;;;12.82;;
67140;SDS011;54058;52.010;5.546;2022-11-15T02:23:47;23.15;;;12.40;;
67140;SDS011;54058;52.010;5.546;2022-11-15T02:28:59;23.80;;;11.68;;
67140;SDS011;54058;52.010;5.546;2022-11-15T02:34:25;28.42;;;12.63;;
67140;SDS011;54058;52.010;5.546;2022-11-15T02:37:20;25.60;;;12.93;;
67140;SDS011;54058;52.010;5.546;2022-11-15T02:40:02;21.83;;;11.80;;
67140;SDS011;54058;52.010;5.546;2022-11-15T02:42:40;23.92;;;12.35;;
67140;SDS011;54058;52.010;5.546;2022-11-15T02:45:30;24.33;;;11.32;;
67140;SDS011;54058;52.010;5.546;2022-11-15T02:47:59;22.98;;;12.18;;
67140;SDS011;54058;52.010;5.546;2022-11-15T02:50:28;23.77;;;11.68;;
67140;SDS011;54058;52.010;5.546;2022-11-15T02:52:56;23.25;;;12.18;;
67140;SDS011;54058;52.010;5.546;2022-11-15T02:55:29;21.48;;;12.05;;
67140;SDS011;54058;52.010;5.546;2022-11-15T02:58:04;18.90;;;11.27;;
67140;SDS011;54058;52.010;5.546;2022-11-15T03:00:45;19.17;;;12.00;;
67140;SDS011;54058;52.010;5.546;2022-11-15T03:11:20;19.05;;;11.13;;
67140;SDS011;54058;52.010;5.546;2022-11-15T03:17:18;19.70;;;11.38;;
67140;SDS011;54058;52.010;5.546;2022-11-15T03:19:48;22.95;;;12.13;;
67140;SDS011;54058;52.010;5.546;2022-11-15T03:22:18;18.73;;;10.48;;
67140;SDS011;54058;52.010;5.546;2022-11-15T03:24:50;21.42;;;12.13;;
67140;SDS011;54058;52.010;5.546;2022-11-15T03:27:20;17.80;;;10.55;;
67140;SDS011;54058;52.010;5.546;2022-11-15T03:29:50;20.67;;;11.93;;
67140;SDS011;54058;52.010;5.546;2022-11-15T03:32:25;26.77;;;12.35;;
67140;SDS011;54058;52.010;5.546;2022-11-15T03:35:01;20.83;;;11.75;;
67140;SDS011;54058;52.010;5.546;2022-11-15T03:37:33;27.02;;;13.90;;
67140;SDS011;54058;52.010;5.546;2022-11-15T03:40:06;23.88;;;12.50;;
67140;SDS011;54058;52.010;5.546;2022-11-15T03:42:40;20.70;;;12.02;;
67140;SDS011;54058;52.010;5.546;2022-11-15T03:45:14;20.27;;;12.07;;
67140;SDS011;54058;52.010;5.546;2022-11-15T03:47:53;20.40;;;12.18;;
67140;SDS011;54058;52.010;5.546;2022-11-15T03:50:20;20.45;;;12.20;;
67140;SDS011;54058;52.010;5.546;2022-11-15T03:52:48;21.40;;;11.73;;
67140;SDS011;54058;52.010;5.546;2022-11-15T03:55:18;20.98;;;12.23;;
67140;SDS011;54058;52.010;5.546;2022-11-15T03:57:45;21.00;;;13.43;;
67140;SDS011;54058;52.010;5.546;2022-11-15T04:00:13;24.08;;;12.60;;
67140;SDS011;54058;52.010;5.546;2022-11-15T04:02:39;24.92;;;12.68;;
67140;SDS011;54058;52.010;5.546;2022-11-15T04:05:04;22.80;;;13.45;;
67140;SDS011;54058;52.010;5.546;2022-11-15T04:07:30;23.05;;;11.93;;
67140;SDS011;54058;52.010;5.546;2022-11-15T04:09:56;24.67;;;12.55;;
67140;SDS011;54058;52.010;5.546;2022-11-15T04:12:27;22.38;;;11.60;;
67140;SDS011;54058;52.010;5.546;2022-11-15T04:15:03;22.88;;;11.98;;
67140;SDS011;54058;52.010;5.546;2022-11-15T04:17:43;19.58;;;11.38;;
67140;SDS011;54058;52.010;5.546;2022-11-15T04:23:06;25.55;;;12.13;;
67140;SDS011;54058;52.010;5.546;2022-11-15T04:25:56;20.60;;;10.95;;
67140;SDS011;54058;52.010;5.546;2022-11-15T04:28:26;22.55;;;12.20;;
67140;SDS011;54058;52.010;5.546;2022-11-15T04:30:52;23.15;;;13.15;;
67140;SDS011;54058;52.010;5.546;2022-11-15T04:33:17;23.58;;;12.50;;
67140;SDS011;54058;52.010;5.546;2022-11-15T04:35:44;31.45;;;13.10;;
67140;SDS011;54058;52.010;5.546;2022-11-15T04:38:29;20.92;;;11.27;;
67140;SDS011;54058;52.010;5.546;2022-11-15T04:40:55;21.08;;;12.68;;
67140;SDS011;54058;52.010;5.546;2022-11-15T04:43:20;22.33;;;12.45;;
67140;SDS011;54058;52.010;5.546;2022-11-15T04:45:46;17.95;;;11.07;;
67140;SDS011;54058;52.010;5.546;2022-11-15T04:48:12;20.52;;;11.63;;
67140;SDS011;54058;52.010;5.546;2022-11-15T04:50:37;18.55;;;12.45;;
67140;SDS011;54058;52.010;5.546;2022-11-15T04:53:03;19.88;;;12.45;;
67140;SDS011;54058;52.010;5.546;2022-11-15T04:55:29;20.08;;;12.63;;
67140;SDS011;54058;52.010;5.546;2022-11-15T04:57:58;23.92;;;13.13;;
67140;SDS011;54058;52.010;5.546;2022-11-15T05:00:25;21.10;;;11.10;;
67140;SDS011;54058;52.010;5.546;2022-11-15T05:02:53;23.25;;;12.65;;
67140;SDS011;54058;52.010;5.546;2022-11-15T05:05:37;19.40;;;10.93;;
67140;SDS011;54058;52.010;5.546;2022-11-15T05:08:03;18.70;;;11.98;;
67140;SDS011;54058;52.010;5.546;2022-11-15T05:10:29;25.73;;;13.70;;
67140;SDS011;54058;52.010;5.546;2022-11-15T05:12:55;27.25;;;13.05;;
67140;SDS011;54058;52.010;5.546;2022-11-15T05:15:20;25.65;;;13.65;;
67140;SDS011;54058;52.010;5.546;2022-11-15T05:17:46;23.75;;;12.75;;
67140;SDS011;54058;52.010;5.546;2022-11-15T05:20:11;21.88;;;11.75;;
67140;SDS011;54058;52.010;5.546;2022-11-15T05:22:37;19.65;;;11.30;;
67140;SDS011;54058;52.010;5.546;2022-11-15T05:25:03;22.83;;;12.77;;
67140;SDS011;54058;52.010;5.546;2022-11-15T05:27:30;23.05;;;12.38;;
67140;SDS011;54058;52.010;5.546;2022-11-15T05:29:55;22.13;;;12.85;;
67140;SDS011;54058;52.010;5.546;2022-11-15T05:32:21;25.45;;;13.00;;
67140;SDS011;54058;52.010;5.546;2022-11-15T05:34:46;22.98;;;13.20;;
67140;SDS011;54058;52.010;5.546;2022-11-15T05:37:13;18.50;;;11.38;;
67140;SDS011;54058;52.010;5.546;2022-11-15T05:39:39;24.25;;;12.82;;
67140;SDS011;54058;52.010;5.546;2022-11-15T05:42:06;23.33;;;12.85;;
67140;SDS011;54058;52.010;5.546;2022-11-15T05:44:37;21.77;;;12.18;;
67140;SDS011;54058;52.010;5.546;2022-11-15T05:47:07;25.80;;;13.77;;
67140;SDS011;54058;52.010;5.546;2022-11-15T05:49:35;23.55;;;12.32;;
67140;SDS011;54058;52.010;5.546;2022-11-15T05:52:04;29.80;;;14.07;;
67140;SDS011;54058;52.010;5.546;2022-11-15T05:54:31;19.83;;;12.25;;
67140;SDS011;54058;52.010;5.546;2022-11-15T05:56:58;20.40;;;11.68;;
67140;SDS011;54058;52.010;5.546;2022-11-15T05:59:25;20.63;;;11.63;;
67140;SDS011;54058;52.010;5.546;2022-11-15T06:01:53;28.48;;;13.13;;
67140;SDS011;54058;52.010;5.546;2022-11-15T06:04:18;26.65;;;13.52;;
67140;SDS011;54058;52.010;5.546;2022-11-15T06:06:44;20.75;;;11.23;;
67140;SDS011;54058;52.010;5.546;2022-11-15T06:09:10;24.88;;;13.85;;
67140;SDS011;54058;52.010;5.546;2022-11-15T06:11:35;23.23;;;13.48;;
67140;SDS011;54058;52.010;5.546;2022-11-15T06:14:01;19.42;;;11.75;;
67140;SDS011;54058;52.010;5.546;2022-11-15T06:16:26;22.65;;;13.02;;
67140;SDS011;54058;52.010;5.546;2022-11-15T06:18:52;20.80;;;12.68;;
67140;SDS011;54058;52.010;5.546;2022-11-15T06:21:17;24.45;;;13.35;;
67140;SDS011;54058;52.010;5.546;2022-11-15T06:23:43;22.73;;;13.77;;
67140;SDS011;54058;52.010;5.546;2022-11-15T06:26:09;27.60;;;12.63;;
67140;SDS011;54058;52.010;5.546;2022-11-15T06:28:34;19.83;;;12.38;;
67140;SDS011;54058;52.010;5.546;2022-11-15T06:31:07;28.75;;;13.95;;
67140;SDS011;54058;52.010;5.546;2022-11-15T06:33:34;29.75;;;13.50;;
67140;SDS011;54058;52.010;5.546;2022-11-15T06:36:01;19.45;;;12.68;;
67140;SDS011;54058;52.010;5.546;2022-11-15T06:38:30;21.08;;;12.27;;
67140;SDS011;54058;52.010;5.546;2022-11-15T06:41:03;32.10;;;13.65;;
67140;SDS011;54058;52.010;5.546;2022-11-15T06:43:30;24.90;;;12.32;;
67140;SDS011;54058;52.010;5.546;2022-11-15T06:45:57;23.45;;;13.38;;
67140;SDS011;54058;52.010;5.546;2022-11-15T06:48:24;21.17;;;12.43;;
67140;SDS011;54058;52.010;5.546;2022-11-15T06:50:51;23.15;;;12.60;;
67140;SDS011;54058;52.010;5.546;2022-11-15T06:53:17;19.65;;;12.68;;
67140;SDS011;54058;52.010;5.546;2022-11-15T06:55:43;22.27;;;12.55;;
67140;SDS011;54058;52.010;5.546;2022-11-15T06:58:08;24.02;;;12.20;;
67140;SDS011;54058;52.010;5.546;2022-11-15T07:00:34;18.70;;;11.00;;
67140;SDS011;54058;52.010;5.546;2022-11-15T07:03:00;23.90;;;13.13;;
67140;SDS011;54058;52.010;5.546;2022-11-15T07:05:29;19.40;;;11.88;;
67140;SDS011;54058;52.010;5.546;2022-11-15T07:07:56;19.35;;;11.02;;
67140;SDS011;54058;52.010;5.546;2022-11-15T07:10:22;25.08;;;13.57;;
67140;SDS011;54058;52.010;5.546;2022-11-15T07:12:50;16.42;;;10.27;;
67140;SDS011;54058;52.010;5.546;2022-11-15T07:15:17;20.00;;;11.25;;
67140;SDS011;54058;52.010;5.546;2022-11-15T07:17:43;22.67;;;12.15;;
67140;SDS011;54058;52.010;5.546;2022-11-15T07:20:09;17.80;;;11.23;;
67140;SDS011;54058;52.010;5.546;2022-11-15T07:22:35;24.15;;;13.57;;
67140;SDS011;54058;52.010;5.546;2022-11-15T07:25:00;18.77;;;11.25;;
67140;SDS011;54058;52.010;5.546;2022-11-15T07:27:26;19.10;;;12.10;;
67140;SDS011;54058;52.010;5.546;2022-11-15T07:29:52;19.77;;;11.82;;
67140;SDS011;54058;52.010;5.546;2022-11-15T07:32:17;21.05;;;10.95;;
67140;SDS011;54058;52.010;5.546;2022-11-15T07:34:43;23.70;;;12.93;;
67140;SDS011;54058;52.010;5.546;2022-11-15T07:37:11;19.45;;;11.57;;
67140;SDS011;54058;52.010;5.546;2022-11-15T07:39:37;24.58;;;12.77;;
67140;SDS011;54058;52.010;5.546;2022-11-15T07:42:03;21.08;;;11.35;;
67140;SDS011;54058;52.010;5.546;2022-11-15T07:44:48;22.80;;;11.15;;
67140;SDS011;54058;52.010;5.546;2022-11-15T07:47:13;19.17;;;10.40;;
67140;SDS011;54058;52.010;5.546;2022-11-15T07:49:39;22.25;;;11.48;;
67140;SDS011;54058;52.010;5.546;2022-11-15T07:52:04;28.58;;;12.07;;
67140;SDS011;54058;52.010;5.546;2022-11-15T07:54:31;23.10;;;11.18;;
67140;SDS011;54058;52.010;5.546;2022-11-15T07:56:57;19.05;;;11.35;;
67140;SDS011;54058;52.010;5.546;2022-11-15T07:59:22;21.92;;;11.07;;
67140;SDS011;54058;52.010;5.546;2022-11-15T08:01:48;28.42;;;11.90;;
67140;SDS011;54058;52.010;5.546;2022-11-15T08:04:14;20.75;;;10.82;;
67140;SDS011;54058;52.010;5.546;2022-11-15T08:06:39;19.20;;;11.23;;
67140;SDS011;54058;52.010;5.546;2022-11-15T08:09:05;22.10;;;10.68;;
67140;SDS011;54058;52.010;5.546;2022-11-15T08:11:31;18.70;;;10.55;;
67140;SDS011;54058;52.010;5.546;2022-11-15T08:13:58;21.42;;;10.88;;
67140;SDS011;54058;52.010;5.546;2022-11-15T08:18:49;17.90;;;9.60;;
67140;SDS011;54058;52.010;5.546;2022-11-15T08:21:18;20.60;;;10.70;;
67140;SDS011;54058;52.010;5.546;2022-11-15T08:23:45;17.80;;;10.35;;
67140;SDS011;54058;52.010;5.546;2022-11-15T08:26:11;21.60;;;11.77;;
67140;SDS011;54058;52.010;5.546;2022-11-15T08:28:36;16.60;;;9.60;;
67140;SDS011;54058;52.010;5.546;2022-11-15T08:31:02;18.10;;;10.10;;
67140;SDS011;54058;52.010;5.546;2022-11-15T08:33:29;17.88;;;10.43;;
67140;SDS011;54058;52.010;5.546;2022-11-15T08:36:01;16.63;;;8.82;;
67140;SDS011;54058;52.010;5.546;2022-11-15T08:38:26;18.98;;;9.15;;
67140;SDS011;54058;52.010;5.546;2022-11-15T08:40:58;17.65;;;10.18;;
67140;SDS011;54058;52.010;5.546;2022-11-15T08:43:29;17.50;;;9.52;;
67140;SDS011;54058;52.010;5.546;2022-11-15T08:45:55;18.30;;;9.13;;
67140;SDS011;54058;52.010;5.546;2022-11-15T08:48:21;15.75;;;8.95;;
67140;SDS011;54058;52.010;5.546;2022-11-15T08:50:47;16.92;;;9.35;;
67140;SDS011;54058;52.010;5.546;2022-11-15T08:53:13;18.05;;;9.38;;
67140;SDS011;54058;52.010;5.546;2022-11-15T08:55:39;23.92;;;9.68;;
67140;SDS011;54058;52.010;5.546;2022-11-15T08:58:05;16.90;;;8.43;;
67140;SDS011;54058;52.010;5.546;2022-11-15T09:00:31;21.75;;;9.73;;
67140;SDS011;54058;52.010;5.546;2022-11-15T09:02:58;26.42;;;8.77;;
67140;SDS011;54058;52.010;5.546;2022-11-15T09:05:24;12.50;;;8.73;;
67140;SDS011;54058;52.010;5.546;2022-11-15T09:07:53;14.57;;;8.30;;
67140;SDS011;54058;52.010;5.546;2022-11-15T09:10:20;15.85;;;9.07;;
67140;SDS011;54058;52.010;5.546;2022-11-15T09:12:46;16.02;;;10.50;;
67140;SDS011;54058;52.010;5.546;2022-11-15T09:17:39;12.05;;;7.95;;
67140;SDS011;54058;52.010;5.546;2022-11-15T09:20:04;15.93;;;7.70;;
67140;SDS011;54058;52.010;5.546;2022-11-15T09:22:32;19.80;;;8.82;;
67140;SDS011;54058;52.010;5.546;2022-11-15T09:24:58;20.10;;;9.35;;
67140;SDS011;54058;52.010;5.546;2022-11-15T09:27:27;19.48;;;9.52;;
67140;SDS011;54058;52.010;5.546;2022-11-15T09:29:53;13.02;;;8.05;;
67140;SDS011;54058;52.010;5.546;2022-11-15T09:32:22;16.55;;;8.43;;
67140;SDS011;54058;52.010;5.546;2022-11-15T09:34:48;18.13;;;8.73;;
67140;SDS011;54058;52.010;5.546;2022-11-15T09:37:14;18.43;;;9.53;;
67140;SDS011;54058;52.010;5.546;2022-11-15T09:39:40;15.18;;;8.45;;
67140;SDS011;54058;52.010;5.546;2022-11-15T09:53:41;17.58;;;7.32;;
67140;SDS011;54058;52.010;5.546;2022-11-15T09:56:15;11.75;;;7.32;;
67140;SDS011;54058;52.010;5.546;2022-11-15T09:58:52;11.25;;;7.60;;
67140;SDS011;54058;52.010;5.546;2022-11-15T10:02:08;12.88;;;7.03;;
67140;SDS011;54058;52.010;5.546;2022-11-15T10:04:21;13.52;;;6.70;;
67140;SDS011;54058;52.010;5.546;2022-11-15T10:07:36;12.70;;;6.80;;
67140;SDS011;54058;52.010;5.546;2022-11-15T10:10:07;9.27;;;4.88;;
67140;SDS011;54058;52.010;5.546;2022-11-15T10:12:47;7.22;;;5.10;;
67140;SDS011;54058;52.010;5.546;2022-11-15T10:15:16;6.53;;;4.20;;
67140;SDS011;54058;52.010;5.546;2022-11-15T10:20:34;7.22;;;4.20;;
67140;SDS011;54058;52.010;5.546;2022-11-15T10:23:18;4.90;;;3.20;;
67140;SDS011;54058;52.010;5.546;2022-11-15T10:25:46;9.80;;;3.35;;
67140;SDS011;54058;52.010;5.546;2022-11-15T10:30:48;8.38;;;3.13;;
67140;SDS011;54058;52.010;5.546;2022-11-15T10:41:16;5.47;;;2.67;;
67140;SDS011;54058;52.010;5.546;2022-11-15T10:43:44;5.43;;;3.20;;
67140;SDS011;54058;52.010;5.546;2022-11-15T10:46:20;8.07;;;2.70;;
67140;SDS011;54058;52.010;5.546;2022-11-15T10:51:19;3.15;;;2.50;;
67140;SDS011;54058;52.010;5.546;2022-11-15T10:53:54;3.90;;;2.45;;
67140;SDS011;54058;52.010;5.546;2022-11-15T10:56:22;11.77;;;3.00;;
67140;SDS011;54058;52.010;5.546;2022-11-15T10:58:51;6.03;;;2.95;;
67140;SDS011;54058;52.010;5.546;2022-11-15T11:01:24;10.32;;;2.85;;
67140;SDS011;54058;52.010;5.546;2022-11-15T11:03:58;6.95;;;2.67;;
67140;SDS011;54058;52.010;5.546;2022-11-15T11:06:27;5.07;;;2.75;;
67140;SDS011;54058;52.010;5.546;2022-11-15T11:08:57;5.68;;;2.38;;
67140;SDS011;54058;52.010;5.546;2022-11-15T11:11:24;6.70;;;2.40;;
67140;SDS011;54058;52.010;5.546;2022-11-15T11:14:12;7.15;;;2.10;;
67140;SDS011;54058;52.010;5.546;2022-11-15T11:16:52;4.05;;;2.20;;
67140;SDS011;54058;52.010;5.546;2022-11-15T11:24:43;3.67;;;2.22;;
67140;SDS011;54058;52.010;5.546;2022-11-15T11:29:54;5.93;;;2.20;;
67140;SDS011;54058;52.010;5.546;2022-11-15T11:32:55;5.13;;;1.95;;
67140;SDS011;54058;52.010;5.546;2022-11-15T11:54:31;11.45;;;1.90;;
67140;SDS011;54058;52.010;5.546;2022-11-15T11:57:17;4.03;;;1.50;;
67140;SDS011;54058;52.010;5.546;2022-11-15T12:00:09;3.88;;;1.17;;
67140;SDS011;54058;52.010;5.546;2022-11-15T12:02:42;6.22;;;1.42;;
67140;SDS011;54058;52.010;5.546;2022-11-15T12:05:34;5.82;;;1.60;;
67140;SDS011;54058;52.010;5.546;2022-11-15T12:08:17;5.15;;;1.38;;
67140;SDS011;54058;52.010;5.546;2022-11-15T12:11:28;11.60;;;1.33;;
67140;SDS011;54058;52.010;5.546;2022-11-15T12:13:57;6.25;;;1.40;;
67140;SDS011;54058;52.010;5.546;2022-11-15T12:16:28;4.22;;;1.33;;
67140;SDS011;54058;52.010;5.546;2022-11-15T12:18:56;3.38;;;1.10;;
67140;SDS011;54058;52.010;5.546;2022-11-15T12:21:36;4.72;;;1.27;;
67140;SDS011;54058;52.010;5.546;2022-11-15T12:24:13;4.63;;;1.20;;
67140;SDS011;54058;52.010;5.546;2022-11-15T12:26:41;4.50;;;1.17;;
67140;SDS011;54058;52.010;5.546;2022-11-15T12:29:20;3.90;;;1.25;;
67140;SDS011;54058;52.010;5.546;2022-11-15T12:31:53;8.85;;;1.50;;
67140;SDS011;54058;52.010;5.546;2022-11-15T12:36:48;10.18;;;1.70;;
67140;SDS011;54058;52.010;5.546;2022-11-15T12:39:15;7.68;;;1.67;;
67140;SDS011;54058;52.010;5.546;2022-11-15T12:59:53;3.30;;;1.30;;
67140;SDS011;54058;52.010;5.546;2022-11-15T13:02:41;7.22;;;1.60;;
67140;SDS011;54058;52.010;5.546;2022-11-15T13:17:39;9.32;;;1.67;;
67140;SDS011;54058;52.010;5.546;2022-11-15T13:23:01;4.55;;;1.67;;
67140;SDS011;54058;52.010;5.546;2022-11-15T13:25:48;3.35;;;1.63;;
67140;SDS011;54058;52.010;5.546;2022-11-15T13:28:38;6.40;;;1.48;;
67140;SDS011;54058;52.010;5.546;2022-11-15T13:34:22;16.67;;;1.42;;
67140;SDS011;54058;52.010;5.546;2022-11-15T13:36:49;5.47;;;1.75;;
67140;SDS011;54058;52.010;5.546;2022-11-15T13:41:57;8.57;;;1.60;;
67140;SDS011;54058;52.010;5.546;2022-11-15T13:44:25;10.60;;;1.50;;
67140;SDS011;54058;52.010;5.546;2022-11-15T13:47:07;6.93;;;1.40;;
67140;SDS011;54058;52.010;5.546;2022-11-15T13:49:39;3.53;;;1.20;;
67140;SDS011;54058;52.010;5.546;2022-11-15T13:52:06;3.50;;;1.20;;
67140;SDS011;54058;52.010;5.546;2022-11-15T13:54:47;4.57;;;1.58;;
67140;SDS011;54058;52.010;5.546;2022-11-15T13:57:28;6.57;;;1.30;;
67140;SDS011;54058;52.010;5.546;2022-11-15T14:00:05;5.25;;;1.60;;
67140;SDS011;54058;52.010;5.546;2022-11-15T14:02:47;13.25;;;1.55;;
67140;SDS011;54058;52.010;5.546;2022-11-15T14:07:40;7.20;;;1.40;;
67140;SDS011;54058;52.010;5.546;2022-11-15T14:10:29;5.68;;;1.55;;
67140;SDS011;54058;52.010;5.546;2022-11-15T14:12:59;5.32;;;1.40;;
67140;SDS011;54058;52.010;5.546;2022-11-15T14:15:36;4.32;;;1.60;;
67140;SDS011;54058;52.010;5.546;2022-11-15T14:18:03;7.03;;;1.50;;
67140;SDS011;54058;52.010;5.546;2022-11-15T14:23:02;6.18;;;1.23;;
67140;SDS011;54058;52.010;5.546;2022-11-15T14:25:52;4.95;;;1.55;;
67140;SDS011;54058;52.010;5.546;2022-11-15T14:30:47;5.95;;;1.30;;
67140;SDS011;54058;52.010;5.546;2022-11-15T14:35:56;5.75;;;1.30;;
67140;SDS011;54058;52.010;5.546;2022-11-15T14:38:26;4.40;;;1.17;;
67140;SDS011;54058;52.010;5.546;2022-11-15T14:40:52;3.70;;;1.15;;
67140;SDS011;54058;52.010;5.546;2022-11-15T14:43:20;6.00;;;1.63;;
67140;SDS011;54058;52.010;5.546;2022-11-15T14:45:46;3.20;;;1.17;;
67140;SDS011;54058;52.010;5.546;2022-11-15T14:48:12;3.00;;;1.48;;
67140;SDS011;54058;52.010;5.546;2022-11-15T14:50:37;5.68;;;1.23;;
67140;SDS011;54058;52.010;5.546;2022-11-15T14:53:03;3.42;;;1.15;;
67140;SDS011;54058;52.010;5.546;2022-11-15T14:55:30;6.18;;;1.30;;
67140;SDS011;54058;52.010;5.546;2022-11-15T14:58:04;10.48;;;1.40;;
67140;SDS011;54058;52.010;5.546;2022-11-15T15:00:33;6.60;;;1.48;;
67140;SDS011;54058;52.010;5.546;2022-11-15T15:03:03;5.38;;;1.52;;
67140;SDS011;54058;52.010;5.546;2022-11-15T15:05:34;9.85;;;1.20;;
67140;SDS011;54058;52.010;5.546;2022-11-15T15:08:05;4.85;;;1.27;;
67140;SDS011;54058;52.010;5.546;2022-11-15T15:10:32;5.90;;;1.20;;
67140;SDS011;54058;52.010;5.546;2022-11-15T15:13:08;4.90;;;1.20;;
67140;SDS011;54058;52.010;5.546;2022-11-15T15:15:46;5.40;;;1.20;;
67140;SDS011;54058;52.010;5.546;2022-11-15T15:18:13;2.83;;;1.25;;
67140;SDS011;54058;52.010;5.546;2022-11-15T15:20:39;4.20;;;1.02;;
67140;SDS011;54058;52.010;5.546;2022-11-15T15:23:10;2.40;;;0.80;;
67140;SDS011;54058;52.010;5.546;2022-11-15T15:25:42;6.50;;;1.10;;
67140;SDS011;54058;52.010;5.546;2022-11-15T15:28:10;2.75;;;1.05;;
67140;SDS011;54058;52.010;5.546;2022-11-15T15:30:36;4.97;;;1.13;;
67140;SDS011;54058;52.010;5.546;2022-11-15T15:33:01;4.57;;;1.20;;
67140;SDS011;54058;52.010;5.546;2022-11-15T15:35:29;4.13;;;1.50;;
67140;SDS011;54058;52.010;5.546;2022-11-15T15:37:57;7.65;;;1.30;;
67140;SDS011;54058;52.010;5.546;2022-11-15T15:40:23;5.25;;;1.00;;
67140;SDS011;54058;52.010;5.546;2022-11-15T15:42:49;1.50;;;0.93;;
67140;SDS011;54058;52.010;5.546;2022-11-15T15:45:16;8.05;;;1.13;;
67140;SDS011;54058;52.010;5.546;2022-11-15T15:47:42;4.35;;;1.17;;
67140;SDS011;54058;52.010;5.546;2022-11-15T15:50:23;4.20;;;1.15;;
67140;SDS011;54058;52.010;5.546;2022-11-15T15:52:54;2.97;;;1.20;;
67140;SDS011;54058;52.010;5.546;2022-11-15T15:55:24;1.73;;;1.02;;
67140;SDS011;54058;52.010;5.546;2022-11-15T15:57:50;7.35;;;1.55;;
67140;SDS011;54058;52.010;5.546;2022-11-15T16:00:16;11.65;;;1.77;;
67140;SDS011;54058;52.010;5.546;2022-11-15T16:02:43;7.40;;;2.05;;
67140;SDS011;54058;52.010;5.546;2022-11-15T16:05:09;4.97;;;1.30;;
67140;SDS011;54058;52.010;5.546;2022-11-15T16:07:35;4.43;;;1.60;;
67140;SDS011;54058;52.010;5.546;2022-11-15T16:10:04;6.70;;;1.30;;
67140;SDS011;54058;52.010;5.546;2022-11-15T16:12:44;5.97;;;1.38;;
67140;SDS011;54058;52.010;5.546;2022-11-15T16:15:10;4.57;;;1.20;;
67140;SDS011;54058;52.010;5.546;2022-11-15T16:17:40;3.85;;;1.15;;
67140;SDS011;54058;52.010;5.546;2022-11-15T16:23:01;2.30;;;1.23;;
67140;SDS011;54058;52.010;5.546;2022-11-15T16:25:28;5.90;;;1.90;;
67140;SDS011;54058;52.010;5.546;2022-11-15T16:27:59;4.47;;;1.90;;
67140;SDS011;54058;52.010;5.546;2022-11-15T16:30:24;9.23;;;1.58;;
67140;SDS011;54058;52.010;5.546;2022-11-15T16:32:50;5.50;;;1.50;;
67140;SDS011;54058;52.010;5.546;2022-11-15T16:35:16;3.40;;;1.45;;
67140;SDS011;54058;52.010;5.546;2022-11-15T16:37:42;6.47;;;1.90;;
67140;SDS011;54058;52.010;5.546;2022-11-15T16:40:26;4.78;;;1.83;;
67140;SDS011;54058;52.010;5.546;2022-11-15T16:42:57;3.85;;;1.50;;
67140;SDS011;54058;52.010;5.546;2022-11-15T16:45:23;3.47;;;1.50;;
67140;SDS011;54058;52.010;5.546;2022-11-15T16:47:50;4.53;;;1.43;;
67140;SDS011;54058;52.010;5.546;2022-11-15T16:50:24;3.53;;;1.23;;
67140;SDS011;54058;52.010;5.546;2022-11-15T16:52:53;9.77;;;1.70;;
67140;SDS011;54058;52.010;5.546;2022-11-15T16:55:23;6.90;;;1.73;;
67140;SDS011;54058;52.010;5.546;2022-11-15T16:57:51;4.35;;;1.67;;
67140;SDS011;54058;52.010;5.546;2022-11-15T17:00:18;15.05;;;1.92;;
67140;SDS011;54058;52.010;5.546;2022-11-15T17:02:47;4.47;;;2.00;;